createdAt,value
2024-03-21T00:00:40.105Z,848.00
2024-03-21T00:01:40.161Z,849.00
2024-03-21T00:02:40.207Z,855.00
2024-03-21T00:03:40.267Z,850.00
2024-03-21T00:04:40.305Z,848.00
2024-03-21T00:05:40.354Z,856.00
2024-03-21T00:06:40.420Z,854.00
2024-03-21T00:07:40.453Z,859.00
2024-03-21T00:08:40.516Z,846.00
2024-03-21T00:09:40.550Z,851.00
2024-03-21T00:10:40.600Z,852.00
2024-03-21T00:11:40.646Z,857.00
2024-03-21T00:12:40.700Z,853.00
2024-03-21T00:13:40.757Z,864.00
2024-03-21T00:14:40.795Z,856.00
2024-03-21T00:15:40.842Z,860.00
2024-03-21T00:16:40.894Z,851.00
2024-03-21T00:17:40.946Z,854.00
2024-03-21T00:18:41.013Z,857.00
2024-03-21T00:19:41.048Z,855.00
2024-03-21T00:20:41.098Z,858.00
2024-03-21T00:21:41.268Z,857.00
2024-03-21T00:22:41.200Z,858.00
2024-03-21T00:23:41.263Z,862.00
2024-03-21T00:24:41.307Z,873.00
2024-03-21T00:25:41.369Z,869.00
2024-03-21T00:26:41.410Z,863.00
2024-03-21T00:27:41.465Z,871.00
2024-03-21T00:28:41.513Z,877.00
2024-03-21T00:29:41.562Z,875.00
2024-03-21T00:30:41.614Z,880.00
2024-03-21T00:31:41.662Z,876.00
2024-03-21T00:32:41.717Z,880.00
2024-03-21T00:33:41.791Z,883.00
2024-03-21T00:34:41.833Z,883.00
2024-03-21T00:35:41.877Z,879.00
2024-03-21T00:36:41.927Z,885.00
2024-03-21T00:37:41.978Z,881.00
2024-03-21T00:38:42.039Z,885.00
2024-03-21T00:39:42.092Z,893.00
2024-03-21T00:40:42.153Z,887.00
2024-03-21T00:41:42.206Z,889.00
2024-03-21T00:42:42.281Z,892.00
2024-03-21T00:43:42.339Z,888.00
2024-03-21T00:44:42.387Z,892.00
2024-03-21T00:45:42.452Z,888.00
2024-03-21T00:46:42.503Z,882.00
2024-03-21T00:47:42.562Z,879.00
2024-03-21T00:48:42.637Z,889.00
2024-03-21T00:49:42.674Z,876.00
2024-03-21T00:50:42.724Z,881.00
2024-03-21T00:51:42.777Z,883.00
2024-03-21T00:52:42.836Z,882.00
2024-03-21T00:53:42.908Z,888.00
2024-03-21T00:54:42.942Z,881.00
2024-03-21T00:55:42.996Z,872.00
2024-03-21T00:56:43.051Z,869.00
2024-03-21T00:57:43.118Z,861.00
2024-03-21T00:58:43.169Z,858.00
2024-03-21T00:59:43.206Z,864.00
2024-03-21T01:00:43.256Z,857.00
2024-03-21T01:01:43.333Z,845.00
2024-03-21T01:02:43.367Z,838.00
2024-03-21T01:03:43.432Z,834.00
2024-03-21T01:04:43.499Z,828.00
2024-03-21T01:05:43.523Z,824.00
2024-03-21T01:06:43.568Z,813.00
2024-03-21T01:07:43.624Z,823.00
2024-03-21T01:08:43.681Z,831.00
2024-03-21T01:09:43.726Z,817.00
2024-03-21T01:10:43.882Z,818.00
2024-03-21T01:11:43.831Z,814.00
2024-03-21T01:12:43.887Z,803.00
2024-03-21T01:13:43.952Z,813.00
2024-03-21T01:14:44.002Z,805.00
2024-03-21T01:15:44.047Z,803.00
2024-03-21T01:16:44.116Z,788.00
2024-03-21T01:17:44.169Z,786.00
2024-03-21T01:18:44.229Z,795.00
2024-03-21T01:19:44.325Z,800.00
2024-03-21T01:20:44.332Z,807.00
2024-03-21T01:21:44.391Z,808.00
2024-03-21T01:22:44.480Z,800.00
2024-03-21T01:23:44.499Z,807.00
2024-03-21T01:24:44.546Z,796.00
2024-03-21T01:25:44.624Z,790.00
2024-03-21T01:26:44.654Z,785.00
2024-03-21T01:27:44.711Z,799.00
2024-03-21T01:28:44.786Z,798.00
2024-03-21T01:29:44.830Z,794.00
2024-03-21T01:30:44.880Z,804.00
2024-03-21T01:31:44.964Z,802.00
2024-03-21T01:32:44.995Z,793.00
2024-03-21T01:33:45.052Z,804.00
2024-03-21T01:34:45.109Z,815.00
2024-03-21T01:35:45.154Z,803.00
2024-03-21T01:36:45.213Z,810.00
2024-03-21T01:37:45.277Z,810.00
2024-03-21T01:38:45.326Z,800.00
2024-03-21T01:39:45.375Z,810.00
2024-03-21T01:40:45.436Z,807.00
2024-03-21T01:41:45.477Z,806.00
2024-03-21T01:42:45.532Z,808.00
2024-03-21T01:43:45.621Z,805.00
2024-03-21T01:44:45.637Z,804.00
2024-03-21T01:45:45.697Z,801.00
2024-03-21T01:46:45.795Z,798.00
2024-03-21T01:47:45.826Z,793.00
2024-03-21T01:48:45.877Z,805.00
2024-03-21T01:49:45.912Z,798.00
2024-03-21T01:50:45.966Z,791.00
2024-03-21T01:51:46.036Z,792.00
2024-03-21T01:52:46.076Z,793.00
2024-03-21T01:53:46.132Z,789.00
2024-03-21T01:54:46.188Z,791.00
2024-03-21T01:55:46.288Z,795.00
2024-03-21T01:56:46.296Z,785.00
2024-03-21T01:57:46.342Z,781.00
2024-03-21T01:58:46.437Z,775.00
2024-03-21T01:59:46.468Z,789.00
2024-03-21T02:00:46.522Z,778.00
2024-03-21T02:01:46.597Z,778.00
2024-03-21T02:02:46.640Z,785.00
2024-03-21T02:03:46.702Z,776.00
2024-03-21T02:04:46.767Z,787.00
2024-03-21T02:05:46.804Z,778.00
2024-03-21T02:06:46.907Z,786.00
2024-03-21T02:07:46.970Z,792.00
2024-03-21T02:08:46.996Z,788.00
2024-03-21T02:09:47.043Z,783.00
2024-03-21T02:10:47.118Z,785.00
2024-03-21T02:11:47.160Z,789.00
2024-03-21T02:12:47.213Z,786.00
2024-03-21T02:13:47.299Z,786.00
2024-03-21T02:14:47.344Z,784.00
2024-03-21T02:15:47.412Z,793.00
2024-03-21T02:16:47.513Z,790.00
2024-03-21T02:17:47.520Z,788.00
2024-03-21T02:18:47.593Z,766.00
2024-03-21T02:19:47.640Z,771.00
2024-03-21T02:20:47.701Z,777.00
2024-03-21T02:21:47.759Z,780.00
2024-03-21T02:22:47.823Z,772.00
2024-03-21T02:23:47.880Z,775.00
2024-03-21T02:24:47.964Z,769.00
2024-03-21T02:25:48.005Z,775.00
2024-03-21T02:26:48.069Z,775.00
2024-03-21T02:27:48.135Z,767.00
2024-03-21T02:28:48.194Z,752.00
2024-03-21T02:29:48.250Z,764.00
2024-03-21T02:30:48.318Z,760.00
2024-03-21T02:31:48.395Z,742.00
2024-03-21T02:32:48.432Z,745.00
2024-03-21T02:33:48.501Z,744.00
2024-03-21T02:34:48.555Z,740.00
2024-03-21T02:35:48.617Z,729.00
2024-03-21T02:36:48.684Z,728.00
2024-03-21T02:37:48.761Z,716.00
2024-03-21T02:38:48.789Z,724.00
2024-03-21T02:39:48.843Z,730.00
2024-03-21T02:40:48.914Z,731.00
2024-03-21T02:41:48.961Z,727.00
2024-03-21T02:42:49.015Z,725.00
2024-03-21T02:43:49.084Z,710.00
2024-03-21T02:44:49.149Z,709.00
2024-03-21T02:45:49.209Z,721.00
2024-03-21T02:46:49.260Z,707.00
2024-03-21T02:47:49.339Z,724.00
2024-03-21T02:48:49.408Z,716.00
2024-03-21T02:49:49.434Z,722.00
2024-03-21T02:50:49.500Z,724.00
2024-03-21T02:51:49.551Z,724.00
2024-03-21T02:52:49.642Z,724.00
2024-03-21T02:53:49.671Z,721.00
2024-03-21T02:54:49.704Z,720.00
2024-03-21T02:55:49.808Z,726.00
2024-03-21T02:56:49.820Z,727.00
2024-03-21T02:57:49.875Z,735.00
2024-03-21T02:58:49.935Z,727.00
2024-03-21T02:59:49.996Z,738.00
2024-03-21T03:00:50.075Z,744.00
2024-03-21T03:01:50.115Z,744.00
2024-03-21T03:02:50.162Z,734.00
2024-03-21T03:03:50.225Z,751.00
2024-03-21T03:04:50.272Z,749.00
2024-03-21T03:05:50.328Z,740.00
2024-03-21T03:06:50.414Z,740.00
2024-03-21T03:07:50.449Z,751.00
2024-03-21T03:08:50.511Z,740.00
2024-03-21T03:09:50.570Z,743.00
2024-03-21T03:10:50.677Z,727.00
2024-03-21T03:11:50.686Z,735.00
2024-03-21T03:12:50.752Z,737.00
2024-03-21T03:13:50.810Z,743.00
2024-03-21T03:14:50.870Z,742.00
2024-03-21T03:15:50.922Z,731.00
2024-03-21T03:16:50.998Z,749.00
2024-03-21T03:17:51.051Z,748.00
2024-03-21T03:18:51.113Z,747.00
2024-03-21T03:19:51.177Z,748.00
2024-03-21T03:20:51.214Z,753.00
2024-03-21T03:21:51.271Z,739.00
2024-03-21T03:22:51.343Z,748.00
2024-03-21T03:23:51.395Z,750.00
2024-03-21T03:24:51.446Z,747.00
2024-03-21T03:25:51.519Z,747.00
2024-03-21T03:26:51.557Z,749.00
2024-03-21T03:27:51.616Z,747.00
2024-03-21T03:28:51.710Z,761.00
2024-03-21T03:29:51.736Z,746.00
2024-03-21T03:30:51.776Z,751.00
2024-03-21T03:31:51.853Z,762.00
2024-03-21T03:32:51.909Z,765.00
2024-03-21T03:33:51.966Z,760.00
2024-03-21T03:34:52.046Z,771.00
2024-03-21T03:35:52.091Z,764.00
2024-03-21T03:36:52.149Z,771.00
2024-03-21T03:37:52.201Z,767.00
2024-03-21T03:38:52.259Z,766.00
2024-03-21T03:39:52.322Z,777.00
2024-03-21T03:40:52.372Z,774.00
2024-03-21T03:41:52.421Z,770.00
2024-03-21T03:42:52.481Z,783.00
2024-03-21T03:43:52.540Z,775.00
2024-03-21T03:44:52.616Z,781.00
2024-03-21T03:45:52.668Z,782.00
2024-03-21T03:46:52.742Z,789.00
2024-03-21T03:47:52.786Z,786.00
2024-03-21T03:48:52.842Z,796.00
2024-03-21T03:49:52.967Z,784.00
2024-03-21T03:50:52.959Z,783.00
2024-03-21T03:51:53.027Z,775.00
2024-03-21T03:52:53.115Z,772.00
2024-03-21T03:53:53.140Z,769.00
2024-03-21T03:54:53.201Z,761.00
2024-03-21T03:55:53.260Z,747.00
2024-03-21T03:56:53.327Z,742.00
2024-03-21T03:57:53.385Z,748.00
2024-03-21T03:58:53.466Z,757.00
2024-03-21T03:59:54.460Z,756.00
2024-03-21T04:00:53.565Z,742.00
2024-03-21T04:01:53.660Z,751.00
2024-03-21T04:02:53.676Z,743.00
2024-03-21T04:03:53.747Z,753.00
2024-03-21T04:04:53.850Z,750.00
2024-03-21T04:05:53.854Z,752.00
2024-03-21T04:06:53.922Z,745.00
2024-03-21T04:07:54.056Z,731.00
2024-03-21T04:08:54.067Z,742.00
2024-03-21T04:09:54.101Z,746.00
2024-03-21T04:10:54.197Z,767.00
2024-03-21T04:11:54.215Z,755.00
2024-03-21T04:12:54.273Z,745.00
2024-03-21T04:13:54.346Z,739.00
2024-03-21T04:14:54.410Z,744.00
2024-03-21T04:15:54.454Z,750.00
2024-03-21T04:16:54.525Z,756.00
2024-03-21T04:17:54.582Z,756.00
2024-03-21T04:18:54.644Z,765.00
2024-03-21T04:19:54.726Z,763.00
2024-03-21T04:20:54.770Z,757.00
2024-03-21T04:21:54.822Z,766.00
2024-03-21T04:22:54.903Z,773.00
2024-03-21T04:23:54.954Z,787.00
2024-03-21T04:24:55.020Z,775.00
2024-03-21T04:25:55.117Z,785.00
2024-03-21T04:26:55.132Z,790.00
2024-03-21T04:27:55.188Z,801.00
2024-03-21T04:28:55.270Z,793.00
2024-03-21T04:29:55.325Z,785.00
2024-03-21T04:30:55.377Z,789.00
2024-03-21T04:31:55.462Z,782.00
2024-03-21T04:32:55.495Z,781.00
2024-03-21T04:33:55.551Z,778.00
2024-03-21T04:34:55.686Z,757.00
2024-03-21T04:35:55.679Z,758.00
2024-03-21T04:36:55.748Z,741.00
2024-03-21T04:37:55.829Z,726.00
2024-03-21T04:38:55.849Z,718.00
2024-03-21T04:39:55.982Z,718.00
2024-03-21T04:40:56.021Z,717.00
2024-03-21T04:41:56.055Z,733.00
2024-03-21T04:42:56.112Z,733.00
2024-03-21T04:43:56.210Z,744.00
2024-03-21T04:44:56.225Z,750.00
2024-03-21T04:45:56.287Z,746.00
2024-03-21T04:46:56.373Z,749.00
2024-03-21T04:47:57.968Z,756.00
2024-03-21T04:48:56.467Z,763.00
2024-03-21T04:49:56.565Z,767.00
2024-03-21T04:50:56.585Z,772.00
2024-03-21T04:51:56.635Z,772.00
2024-03-21T04:52:56.716Z,770.00
2024-03-21T04:54:04.037Z,600.00
2024-03-21T04:55:04.018Z,600.00
2024-03-21T04:56:04.011Z,600.00
2024-03-21T04:57:04.010Z,600.00
2024-03-21T04:58:04.020Z,600.00
2024-03-21T04:59:04.026Z,601.00
2024-03-21T05:00:04.021Z,603.00
2024-03-21T05:01:04.013Z,603.00
2024-03-21T05:02:04.020Z,603.00
2024-03-21T05:03:04.013Z,603.00
2024-03-21T05:04:04.035Z,601.00
2024-03-21T05:05:04.033Z,608.00
2024-03-21T05:06:04.027Z,611.00
2024-03-21T05:07:04.036Z,609.00
2024-03-21T05:08:04.027Z,614.00
2024-03-21T05:09:04.038Z,612.00
2024-03-21T05:10:04.038Z,613.00
2024-03-21T05:11:04.039Z,615.00
2024-03-21T05:12:04.045Z,615.00
2024-03-21T05:13:04.057Z,616.00
2024-03-21T05:14:04.045Z,612.00
2024-03-21T05:15:04.043Z,612.00
2024-03-21T05:16:04.044Z,606.00
2024-03-21T05:17:04.040Z,605.00
2024-03-21T05:18:04.134Z,608.00
2024-03-21T05:19:04.085Z,609.00
2024-03-21T05:20:04.061Z,608.00
2024-03-21T05:21:04.067Z,609.00
2024-03-21T05:22:04.073Z,612.00
2024-03-21T05:23:04.062Z,609.00
2024-03-21T05:24:04.075Z,606.00
2024-03-21T05:25:04.072Z,605.00
2024-03-21T05:26:04.100Z,604.00
2024-03-21T05:27:04.145Z,603.00
2024-03-21T05:28:04.179Z,602.00
2024-03-21T05:29:04.231Z,604.00
2024-03-21T05:30:04.254Z,604.00
2024-03-21T05:31:04.287Z,606.00
2024-03-21T05:32:04.320Z,604.00
2024-03-21T05:33:04.367Z,606.00
2024-03-21T05:34:04.416Z,608.00
2024-03-21T05:35:04.454Z,608.00
2024-03-21T05:36:04.491Z,609.00
2024-03-21T05:37:04.532Z,609.00
2024-03-21T05:38:04.572Z,608.00
2024-03-21T05:39:04.615Z,610.00
2024-03-21T05:40:04.662Z,613.00
2024-03-21T05:41:04.697Z,608.00
2024-03-21T05:42:04.730Z,607.00
2024-03-21T05:43:04.776Z,613.00
2024-03-21T05:44:04.821Z,615.00
2024-03-21T05:45:04.865Z,614.00
2024-03-21T05:46:04.909Z,608.00
2024-03-21T05:47:04.944Z,609.00
2024-03-21T05:48:04.988Z,605.00
2024-03-21T05:49:05.022Z,608.00
2024-03-21T05:50:05.082Z,610.00
2024-03-21T05:51:05.110Z,605.00
2024-03-21T05:52:05.145Z,610.00
2024-03-21T05:53:05.189Z,606.00
2024-03-21T05:54:05.227Z,605.00
2024-03-21T05:55:05.275Z,604.00
2024-03-21T05:56:05.316Z,604.00
2024-03-21T05:57:05.346Z,607.00
2024-03-21T05:58:05.388Z,607.00
2024-03-21T05:59:05.433Z,606.00
2024-03-21T06:00:05.464Z,609.00
2024-03-21T06:01:05.508Z,610.00
2024-03-21T06:02:05.547Z,609.00
2024-03-21T06:03:05.583Z,609.00
2024-03-21T06:04:05.620Z,610.00
2024-03-21T06:05:05.671Z,604.00
2024-03-21T06:06:05.715Z,609.00
2024-03-21T06:07:05.744Z,607.00
2024-03-21T06:08:05.782Z,607.00
2024-03-21T06:09:05.821Z,611.00
2024-03-21T06:10:05.866Z,614.00
2024-03-21T06:11:05.903Z,611.00
2024-03-21T06:12:05.945Z,612.00
2024-03-21T06:13:05.979Z,616.00
2024-03-21T06:14:06.011Z,617.00
2024-03-21T06:15:06.051Z,617.00
2024-03-21T06:16:06.085Z,616.00
2024-03-21T06:17:06.121Z,622.00
2024-03-21T06:18:06.163Z,626.00
2024-03-21T06:19:06.199Z,629.00
2024-03-21T06:20:06.653Z,629.00
2024-03-21T06:21:06.266Z,630.00
2024-03-21T06:22:06.296Z,636.00
2024-03-21T06:23:06.344Z,634.00
2024-03-21T06:24:06.392Z,638.00
2024-03-21T06:25:06.430Z,636.00
2024-03-21T06:26:06.456Z,638.00
2024-03-21T06:27:06.492Z,644.00
2024-03-21T06:28:06.523Z,641.00
2024-03-21T06:29:06.573Z,638.00
2024-03-21T06:30:06.652Z,635.00
2024-03-21T06:31:06.647Z,635.00
2024-03-21T06:32:06.702Z,640.00
2024-03-21T06:33:06.736Z,641.00
2024-03-21T06:34:06.764Z,635.00
2024-03-21T06:35:07.165Z,639.00
2024-03-21T06:36:06.849Z,645.00
2024-03-21T06:37:06.864Z,643.00
2024-03-21T06:38:06.890Z,646.00
2024-03-21T06:39:06.923Z,655.00
2024-03-21T06:40:07.159Z,658.00
2024-03-21T06:41:07.172Z,665.00
2024-03-21T06:42:07.000Z,671.00
2024-03-21T06:43:07.016Z,698.00
2024-03-21T06:44:07.048Z,719.00
2024-03-21T06:45:07.166Z,732.00
2024-03-21T06:46:07.089Z,744.00
2024-03-21T06:47:07.117Z,759.00
2024-03-21T06:48:07.132Z,778.00
2024-03-21T06:49:07.174Z,804.00
2024-03-21T06:50:07.201Z,812.00
2024-03-21T06:51:07.207Z,824.00
2024-03-21T06:52:07.251Z,842.00
2024-03-21T06:53:07.271Z,820.00
2024-03-21T06:54:07.285Z,818.00
2024-03-21T06:55:07.318Z,837.00
2024-03-21T06:56:07.366Z,849.00
2024-03-21T06:57:07.379Z,837.00
2024-03-21T06:58:07.389Z,843.00
2024-03-21T06:59:07.420Z,872.00
2024-03-21T07:00:07.436Z,988.00
2024-03-21T07:01:07.462Z,1043.00
2024-03-21T07:02:07.509Z,1014.00
2024-03-21T07:03:07.506Z,1010.00
2024-03-21T07:04:07.538Z,990.00
2024-03-21T07:05:07.550Z,984.00
2024-03-21T07:06:07.573Z,1000.00
2024-03-21T07:07:07.599Z,993.00
2024-03-21T07:08:07.619Z,983.00
2024-03-21T07:09:07.639Z,995.00
2024-03-21T07:10:07.668Z,992.00
2024-03-21T07:11:07.711Z,988.00
2024-03-21T07:12:07.700Z,977.00
2024-03-21T07:13:07.738Z,973.00
2024-03-21T07:14:07.757Z,963.00
2024-03-21T07:15:08.173Z,957.00
2024-03-21T07:16:07.816Z,953.00
2024-03-21T07:17:07.862Z,974.00
2024-03-21T07:18:07.869Z,984.00
2024-03-21T07:19:07.897Z,986.00
2024-03-21T07:20:07.953Z,1020.00
2024-03-21T07:21:07.934Z,1028.00
2024-03-21T07:22:07.957Z,1045.00
2024-03-21T07:23:08.181Z,1066.00
2024-03-21T07:24:08.008Z,1097.00
2024-03-21T07:25:08.041Z,1117.00
2024-03-21T07:26:08.111Z,1145.00
2024-03-21T07:27:08.096Z,1152.00
2024-03-21T07:28:08.181Z,1161.00
2024-03-21T07:29:08.164Z,1148.00
2024-03-21T07:30:08.692Z,1136.00
2024-03-21T07:31:08.244Z,1130.00
2024-03-21T07:32:08.285Z,1098.00
2024-03-21T07:33:08.355Z,1064.00
2024-03-21T07:34:08.413Z,1031.00
2024-03-21T07:35:08.690Z,1036.00
2024-03-21T07:36:08.472Z,1044.00
2024-03-21T07:37:08.482Z,1031.00
2024-03-21T07:38:08.506Z,1017.00
2024-03-21T07:39:08.515Z,1004.00
2024-03-21T07:40:08.685Z,991.00
2024-03-21T07:41:08.567Z,983.00
2024-03-21T07:42:08.540Z,990.00
2024-03-21T07:43:08.554Z,962.00
2024-03-21T07:44:08.615Z,978.00
2024-03-21T07:45:08.681Z,965.00
2024-03-21T07:46:08.750Z,968.00
2024-03-21T07:47:08.828Z,929.00
2024-03-21T07:48:08.900Z,956.00
2024-03-21T07:49:08.961Z,945.00
2024-03-21T07:50:09.615Z,915.00
2024-03-21T07:51:09.088Z,901.00
2024-03-21T07:52:09.149Z,890.00
2024-03-21T07:53:09.215Z,876.00
2024-03-21T07:54:09.280Z,872.00
2024-03-21T07:55:09.702Z,854.00
2024-03-21T07:56:09.412Z,855.00
2024-03-21T07:57:09.483Z,853.00
2024-03-21T07:58:09.511Z,852.00
2024-03-21T07:59:09.559Z,841.00
2024-03-21T08:00:09.615Z,845.00
2024-03-21T08:01:11.176Z,835.00
2024-03-21T08:02:09.715Z,824.00
2024-03-21T08:03:09.766Z,825.00
2024-03-21T08:04:09.818Z,824.00
2024-03-21T08:05:09.879Z,809.00
2024-03-21T08:06:09.993Z,802.00
2024-03-21T08:07:10.040Z,805.00
2024-03-21T08:08:10.054Z,795.00
2024-03-21T08:09:10.146Z,799.00
2024-03-21T08:10:10.296Z,807.00
2024-03-21T08:11:10.353Z,817.00
2024-03-21T08:12:10.294Z,812.00
2024-03-21T08:13:10.347Z,810.00
2024-03-21T08:14:10.415Z,817.00
2024-03-21T08:15:10.491Z,836.00
2024-03-21T08:16:10.634Z,857.00
2024-03-21T08:17:10.710Z,864.00
2024-03-21T08:18:10.697Z,878.00
2024-03-21T08:19:10.751Z,893.00
2024-03-21T08:20:10.811Z,905.00
2024-03-21T08:21:12.878Z,915.00
2024-03-21T08:22:10.884Z,916.00
2024-03-21T08:23:10.903Z,919.00
2024-03-21T08:24:10.897Z,928.00
2024-03-21T08:25:11.709Z,945.00
2024-03-21T08:26:10.911Z,952.00
2024-03-21T08:27:10.920Z,962.00
2024-03-21T08:28:10.903Z,973.00
2024-03-21T08:29:10.909Z,1004.00
2024-03-21T08:30:11.025Z,1027.00
2024-03-21T08:31:10.911Z,1058.00
2024-03-21T08:32:10.949Z,1085.00
2024-03-21T08:33:10.905Z,1120.00
2024-03-21T08:34:10.896Z,1141.00
2024-03-21T08:35:11.223Z,1166.00
2024-03-21T08:36:10.906Z,1167.00
2024-03-21T08:37:10.914Z,1204.00
2024-03-21T08:38:10.915Z,1218.00
2024-03-21T08:39:10.914Z,1231.00
2024-03-21T08:40:11.209Z,1245.00
2024-03-21T08:41:10.922Z,1264.00
2024-03-21T08:42:10.930Z,1274.00
2024-03-21T08:43:10.913Z,1305.00
2024-03-21T08:44:11.222Z,1318.00
2024-03-21T08:45:10.912Z,1327.00
2024-03-21T08:46:10.914Z,1354.00
2024-03-21T08:47:10.915Z,1364.00
2024-03-21T08:48:10.915Z,1391.00
2024-03-21T08:49:11.216Z,1402.00
2024-03-21T08:50:10.932Z,1413.00
2024-03-21T08:51:10.931Z,1419.00
2024-03-21T08:52:10.922Z,1439.00
2024-03-21T08:53:10.940Z,1443.00
2024-03-21T08:54:10.928Z,1447.00
2024-03-21T08:55:10.925Z,1457.00
2024-03-21T08:56:10.919Z,1473.00
2024-03-21T08:57:10.931Z,1484.00
2024-03-21T08:58:10.979Z,1487.00
2024-03-21T08:59:11.039Z,1498.00
2024-03-21T09:00:11.103Z,1515.00
2024-03-21T09:01:11.171Z,1536.00
2024-03-21T09:02:11.280Z,1537.00
2024-03-21T09:03:11.312Z,1549.00
2024-03-21T09:04:11.365Z,1566.00
2024-03-21T09:05:11.505Z,1581.00
2024-03-21T09:06:11.567Z,1605.00
2024-03-21T09:07:11.573Z,1613.00
2024-03-21T09:08:11.634Z,1639.00
2024-03-21T09:09:11.704Z,1654.00
2024-03-21T09:10:11.767Z,1664.00
2024-03-21T09:11:11.869Z,1688.00
2024-03-21T09:12:11.895Z,1700.00
2024-03-21T09:13:11.962Z,1701.00
2024-03-21T09:14:12.041Z,1693.00
2024-03-21T09:15:12.172Z,1700.00
2024-03-21T09:16:12.206Z,1696.00
2024-03-21T09:17:12.228Z,1706.00
2024-03-21T09:18:12.284Z,1694.00
2024-03-21T09:19:12.349Z,1692.00
2024-03-21T09:20:12.774Z,1687.00
2024-03-21T09:21:12.478Z,1665.00
2024-03-21T09:22:12.548Z,1659.00
2024-03-21T09:23:12.718Z,1634.00
2024-03-21T09:24:12.707Z,1593.00
2024-03-21T09:25:13.282Z,1553.00
2024-03-21T09:26:12.786Z,1514.00
2024-03-21T09:27:15.432Z,1507.00
2024-03-21T09:28:13.780Z,1474.00
2024-03-21T09:29:12.782Z,1461.00
2024-03-21T09:30:12.794Z,1443.00
2024-03-21T09:31:12.800Z,1435.00
2024-03-21T09:32:12.792Z,1431.00
2024-03-21T09:33:12.791Z,1425.00
2024-03-21T09:34:12.835Z,1406.00
2024-03-21T09:35:12.802Z,1399.00
2024-03-21T09:36:12.798Z,1391.00
2024-03-21T09:37:12.914Z,1393.00
2024-03-21T09:38:12.798Z,1407.00
2024-03-21T09:39:12.821Z,1411.00
2024-03-21T09:40:12.806Z,1415.00
2024-03-21T09:41:12.806Z,1426.00
2024-03-21T09:42:12.802Z,1428.00
2024-03-21T09:43:12.817Z,1454.00
2024-03-21T09:44:12.810Z,1449.00
2024-03-21T09:45:12.887Z,1469.00
2024-03-21T09:46:12.954Z,1492.00
2024-03-21T09:47:13.044Z,1508.00
2024-03-21T09:48:13.076Z,1511.00
2024-03-21T09:49:13.229Z,1526.00
2024-03-21T09:50:13.218Z,1542.00
2024-03-21T09:51:13.322Z,1563.00
2024-03-21T09:52:13.326Z,1580.00
2024-03-21T09:53:13.383Z,1595.00
2024-03-21T09:54:13.439Z,1612.00
2024-03-21T09:55:13.486Z,1622.00
2024-03-21T09:56:13.566Z,1644.00
2024-03-21T09:57:13.580Z,1651.00
2024-03-21T09:58:13.651Z,1660.00
2024-03-21T09:59:13.771Z,1664.00
2024-03-21T10:00:13.756Z,1687.00
2024-03-21T10:01:13.769Z,1698.00
2024-03-21T10:02:13.808Z,1699.00
2024-03-21T10:03:13.856Z,1712.00
2024-03-21T10:04:13.940Z,1706.00
2024-03-21T10:05:13.951Z,1727.00
2024-03-21T10:06:14.068Z,1730.00
2024-03-21T10:07:14.032Z,1734.00
2024-03-21T10:08:14.066Z,1738.00
2024-03-21T10:09:14.102Z,1734.00
2024-03-21T10:10:14.163Z,1740.00
2024-03-21T10:11:14.286Z,1735.00
2024-03-21T10:12:14.204Z,1741.00
2024-03-21T10:13:14.279Z,1743.00
2024-03-21T10:14:14.386Z,1752.00
2024-03-21T10:15:14.857Z,1751.00
2024-03-21T10:16:14.352Z,1741.00
2024-03-21T10:17:15.664Z,1768.00
2024-03-21T10:18:14.414Z,1769.00
2024-03-21T10:19:14.447Z,1785.00
2024-03-21T10:20:14.480Z,1779.00
2024-03-21T10:21:14.499Z,1785.00
2024-03-21T10:22:14.530Z,1779.00
2024-03-21T10:23:14.550Z,1769.00
2024-03-21T10:24:14.571Z,1753.00
2024-03-21T10:25:14.765Z,1764.00
2024-03-21T10:26:14.630Z,1742.00
2024-03-21T10:27:14.654Z,1740.00
2024-03-21T10:28:14.681Z,1749.00
2024-03-21T10:29:14.728Z,1748.00
2024-03-21T10:30:14.859Z,1762.00
2024-03-21T10:31:14.745Z,1756.00
2024-03-21T10:32:14.788Z,1745.00
2024-03-21T10:33:14.801Z,1743.00
2024-03-21T10:34:14.824Z,1748.00
2024-03-21T10:35:19.193Z,1747.00
2024-03-21T10:36:15.869Z,1748.00
2024-03-21T10:37:14.866Z,1752.00
2024-03-21T10:38:14.866Z,1761.00
2024-03-21T10:39:14.872Z,1774.00
2024-03-21T10:40:14.869Z,1809.00
2024-03-21T10:41:14.869Z,1825.00
2024-03-21T10:42:14.879Z,1829.00
2024-03-21T10:43:14.877Z,1846.00
2024-03-21T10:44:14.875Z,1844.00
2024-03-21T10:45:14.874Z,1846.00
2024-03-21T10:46:14.920Z,1845.00
2024-03-21T10:47:14.876Z,1842.00
2024-03-21T10:48:14.876Z,1844.00
2024-03-21T10:49:14.880Z,1847.00
2024-03-21T10:50:15.285Z,1827.00
2024-03-21T10:51:14.893Z,1830.00
2024-03-21T10:52:14.897Z,1827.00
2024-03-21T10:53:14.885Z,1804.00
2024-03-21T10:54:14.897Z,1794.00
2024-03-21T10:55:14.881Z,1779.00
2024-03-21T10:56:14.880Z,1792.00
2024-03-21T10:57:14.881Z,1791.00
2024-03-21T10:58:14.889Z,1796.00
2024-03-21T10:59:14.887Z,1806.00
2024-03-21T11:00:14.887Z,1822.00
2024-03-21T11:01:14.898Z,1810.00
2024-03-21T11:02:14.926Z,1802.00
2024-03-21T11:03:14.919Z,1818.00
2024-03-21T11:04:14.891Z,1822.00
2024-03-21T11:05:14.909Z,1822.00
2024-03-21T11:06:16.330Z,1836.00
2024-03-21T11:07:14.918Z,1842.00
2024-03-21T11:08:14.942Z,1843.00
2024-03-21T11:09:14.937Z,1873.00
2024-03-21T11:10:15.007Z,1869.00
2024-03-21T11:11:14.979Z,1902.00
2024-03-21T11:12:15.091Z,1902.00
2024-03-21T11:13:15.001Z,1901.00
2024-03-21T11:14:15.056Z,1908.00
2024-03-21T11:15:15.036Z,1917.00
2024-03-21T11:16:15.043Z,1909.00
2024-03-21T11:17:15.102Z,1919.00
2024-03-21T11:18:15.115Z,1926.00
2024-03-21T11:19:15.134Z,1939.00
2024-03-21T11:20:15.482Z,1918.00
2024-03-21T11:21:15.189Z,1913.00
2024-03-21T11:22:15.324Z,1898.00
2024-03-21T11:23:15.191Z,1892.00
2024-03-21T11:24:15.231Z,1830.00
2024-03-21T11:25:15.320Z,1761.00
2024-03-21T11:26:15.267Z,1669.00
2024-03-21T11:27:15.322Z,1624.00
2024-03-21T11:28:15.383Z,1577.00
2024-03-21T11:29:19.326Z,1537.00
2024-03-21T11:30:16.377Z,1517.00
2024-03-21T11:31:15.447Z,1492.00
2024-03-21T11:32:15.459Z,1470.00
2024-03-21T11:33:16.250Z,1461.00
2024-03-21T11:34:15.467Z,1463.00
2024-03-21T11:35:15.472Z,1462.00
2024-03-21T11:36:15.479Z,1435.00
2024-03-21T11:37:15.819Z,1434.00
2024-03-21T11:38:15.467Z,1434.00
2024-03-21T11:39:15.480Z,1449.00
2024-03-21T11:40:15.483Z,1456.00
2024-03-21T11:41:15.475Z,1456.00
2024-03-21T11:42:15.507Z,1462.00
2024-03-21T11:43:15.473Z,1469.00
2024-03-21T11:44:15.471Z,1468.00
2024-03-21T11:45:15.493Z,1464.00
2024-03-21T11:46:15.515Z,1478.00
2024-03-21T11:47:15.511Z,1477.00
2024-03-21T11:48:16.664Z,1484.00
2024-03-21T11:49:15.495Z,1494.00
2024-03-21T11:50:15.493Z,1489.00
2024-03-21T11:51:15.485Z,1508.00
2024-03-21T11:52:15.504Z,1504.00
2024-03-21T11:53:15.528Z,1517.00
2024-03-21T11:54:15.547Z,1520.00
2024-03-21T11:55:15.580Z,1508.00
2024-03-21T11:56:15.595Z,1503.00
2024-03-21T11:57:15.624Z,1508.00
2024-03-21T11:58:15.646Z,1517.00
2024-03-21T11:59:15.656Z,1519.00
2024-03-21T12:00:15.696Z,1532.00
2024-03-21T12:01:15.720Z,1550.00
2024-03-21T12:02:15.732Z,1553.00
2024-03-21T12:03:15.782Z,1552.00
2024-03-21T12:04:15.767Z,1556.00
2024-03-21T12:05:15.804Z,1545.00
2024-03-21T12:06:15.893Z,1544.00
2024-03-21T12:07:15.799Z,1541.00
2024-03-21T12:08:15.889Z,1536.00
2024-03-21T12:09:15.854Z,1535.00
2024-03-21T12:10:16.336Z,1533.00
2024-03-21T12:11:15.941Z,1535.00
2024-03-21T12:12:15.918Z,1536.00
2024-03-21T12:13:16.322Z,1530.00
2024-03-21T12:14:15.990Z,1537.00
2024-03-21T12:15:15.915Z,1521.00
2024-03-21T12:16:15.932Z,1522.00
2024-03-21T12:17:15.964Z,1504.00
2024-03-21T12:18:16.350Z,1511.00
2024-03-21T12:19:15.998Z,1509.00
2024-03-21T12:20:16.013Z,1500.00
2024-03-21T12:21:16.036Z,1517.00